createdAt,value
2019-01-23T00:00:20.997Z,26.10
2019-01-23T00:02:49.558Z,25.83
2019-01-23T00:05:18.033Z,26.20
2019-01-23T00:07:46.514Z,26.60
2019-01-23T00:10:15.005Z,25.85
2019-01-23T00:12:43.476Z,27.10
2019-01-23T00:15:12.044Z,26.68
2019-01-23T00:17:40.528Z,25.50
2019-01-23T00:20:09.337Z,26.23
2019-01-23T00:22:37.885Z,26.05
2019-01-23T00:25:08.622Z,25.80
2019-01-23T00:27:37.170Z,25.32
2019-01-23T00:30:08.751Z,24.75
2019-01-23T00:32:37.301Z,25.00
2019-01-23T00:35:07.144Z,26.40
2019-01-23T00:37:35.622Z,27.10
2019-01-23T00:40:09.828Z,26.02
2019-01-23T00:42:38.377Z,26.53
2019-01-23T00:45:10.284Z,25.40
2019-01-23T00:47:38.915Z,26.55
2019-01-23T00:50:09.668Z,26.17
2019-01-23T00:52:38.217Z,25.23
2019-01-23T00:55:15.840Z,25.73
2019-01-23T00:57:44.320Z,25.70
2019-01-23T01:00:18.925Z,26.87
2019-01-23T01:02:47.476Z,25.53
2019-01-23T01:05:16.878Z,26.62
2019-01-23T01:07:45.498Z,26.20
2019-01-23T01:10:16.819Z,27.77
2019-01-23T01:12:45.457Z,26.60
2019-01-23T01:15:14.664Z,27.67
2019-01-23T01:17:43.574Z,27.15
2019-01-23T01:20:14.009Z,27.60
2019-01-23T01:22:42.721Z,27.80
2019-01-23T01:25:14.051Z,27.13
2019-01-23T01:27:43.264Z,28.40
2019-01-23T01:30:17.272Z,27.70
2019-01-23T01:32:45.829Z,27.07
2019-01-23T01:35:14.373Z,27.87
2019-01-23T01:37:42.943Z,27.20
2019-01-23T01:40:14.064Z,27.70
2019-01-23T01:42:42.610Z,28.70
2019-01-23T01:45:12.716Z,28.45
2019-01-23T01:47:41.262Z,29.85
2019-01-23T01:50:12.952Z,28.85
2019-01-23T01:52:41.565Z,31.23
2019-01-23T01:55:10.498Z,30.35
2019-01-23T01:57:39.048Z,30.00
2019-01-23T02:00:19.329Z,29.70
2019-01-23T02:02:47.874Z,30.50
2019-01-23T02:05:16.774Z,30.70
2019-01-23T02:07:45.457Z,30.13
2019-01-23T02:10:16.693Z,30.00
2019-01-23T02:12:45.411Z,30.62
2019-01-23T02:15:15.225Z,30.88
2019-01-23T02:17:43.916Z,31.23
2019-01-23T02:20:18.246Z,30.10
2019-01-23T02:22:46.860Z,32.45
2019-01-23T02:25:15.881Z,32.53
2019-01-23T02:27:45.661Z,31.57
2019-01-23T02:30:16.978Z,31.65
2019-01-23T02:32:45.594Z,30.17
2019-01-23T02:35:14.141Z,31.33
2019-01-23T02:37:42.707Z,32.27
2019-01-23T02:40:14.191Z,31.20
2019-01-23T02:42:42.762Z,33.78
2019-01-23T02:45:11.799Z,32.90
2019-01-23T02:47:40.441Z,33.23
2019-01-23T02:50:10.739Z,34.27
2019-01-23T02:52:39.311Z,33.33
2019-01-23T02:55:09.864Z,32.38
2019-01-23T02:57:38.510Z,33.80
2019-01-23T03:00:10.261Z,33.00
2019-01-23T03:02:38.828Z,32.77
2019-01-23T03:05:10.938Z,32.83
2019-01-23T03:07:51.761Z,34.00
2019-01-23T03:10:21.173Z,34.50
2019-01-23T03:12:49.772Z,32.47
2019-01-23T03:15:19.034Z,33.40
2019-01-23T03:17:47.599Z,34.20
2019-01-23T03:20:17.686Z,33.92
2019-01-23T03:22:46.256Z,33.50
2019-01-23T03:25:15.566Z,34.65
2019-01-23T03:27:44.203Z,33.95
2019-01-23T03:30:20.953Z,32.78
2019-01-23T03:32:49.581Z,34.03
2019-01-23T03:35:18.568Z,35.87
2019-01-23T03:37:47.218Z,36.73
2019-01-23T03:40:18.115Z,35.08
2019-01-23T03:42:46.762Z,34.27
2019-01-23T03:45:16.745Z,34.27
2019-01-23T03:47:45.357Z,34.25
2019-01-23T03:50:15.946Z,34.15
2019-01-23T03:52:44.448Z,34.80
2019-01-23T03:55:15.683Z,34.80
2019-01-23T03:57:44.339Z,35.70
2019-01-23T04:00:15.205Z,35.20
2019-01-23T04:02:43.852Z,37.50
2019-01-23T04:05:13.154Z,36.40
2019-01-23T04:07:41.725Z,37.10
2019-01-23T04:10:12.792Z,35.78
2019-01-23T04:12:41.363Z,34.00
2019-01-23T04:15:12.674Z,34.13
2019-01-23T04:17:41.251Z,35.60
2019-01-23T04:20:15.559Z,36.23
2019-01-23T04:22:44.265Z,35.63
2019-01-23T04:25:13.085Z,34.85
2019-01-23T04:27:41.662Z,37.03
2019-01-23T04:30:19.001Z,35.58
2019-01-23T04:32:47.641Z,36.83
2019-01-23T04:35:16.270Z,36.80
2019-01-23T04:37:45.021Z,37.00
2019-01-23T04:40:14.814Z,37.13
2019-01-23T04:42:43.373Z,36.73
2019-01-23T04:45:14.310Z,36.27
2019-01-23T04:47:43.166Z,36.28
2019-01-23T04:50:14.546Z,37.55
2019-01-23T04:53:01.368Z,36.60
2019-01-23T04:55:30.216Z,36.88
2019-01-23T04:57:58.798Z,36.65
2019-01-23T05:00:29.338Z,35.83
2019-01-23T05:02:58.049Z,36.60
2019-01-23T05:05:26.593Z,37.10
2019-01-23T05:07:55.104Z,36.20
2019-01-23T05:10:23.731Z,37.60
2019-01-23T05:12:52.380Z,37.80
2019-01-23T05:15:20.857Z,38.60
2019-01-23T05:17:49.456Z,37.60
2019-01-23T05:20:18.075Z,39.75
2019-01-23T05:22:46.574Z,41.20
2019-01-23T05:25:15.206Z,41.00
2019-01-23T05:27:43.718Z,40.00
2019-01-23T05:30:18.390Z,39.40
2019-01-23T05:32:46.953Z,38.90
2019-01-23T05:35:16.063Z,40.60
2019-01-23T05:37:44.694Z,41.27
2019-01-23T05:40:14.206Z,39.77
2019-01-23T05:42:43.015Z,38.73
2019-01-23T05:45:14.161Z,38.87
2019-01-23T05:47:42.794Z,40.90
2019-01-23T05:50:14.247Z,41.90
2019-01-23T05:52:42.859Z,39.80
2019-01-23T05:55:12.965Z,40.80
2019-01-23T05:57:41.611Z,39.93
2019-01-23T06:00:13.725Z,39.10
2019-01-23T06:02:42.340Z,44.27
2019-01-23T06:05:11.483Z,43.13
2019-01-23T06:07:40.170Z,41.33
2019-01-23T06:10:10.583Z,40.37
2019-01-23T06:12:39.135Z,42.67
2019-01-23T06:15:12.402Z,41.67
2019-01-23T06:17:40.927Z,38.85
2019-01-23T06:20:12.546Z,38.20
2019-01-23T06:22:41.037Z,41.53
2019-01-23T06:25:09.666Z,41.30
2019-01-23T06:27:38.149Z,41.20
2019-01-23T06:30:18.275Z,41.23
2019-01-23T06:32:46.972Z,39.47
2019-01-23T06:35:16.084Z,36.10
2019-01-23T06:37:44.635Z,37.50
2019-01-23T06:40:15.339Z,37.25
2019-01-23T06:42:43.882Z,36.25
2019-01-23T06:45:17.176Z,38.50
2019-01-23T06:47:46.201Z,36.77
2019-01-23T06:50:17.126Z,34.97
2019-01-23T06:52:45.821Z,36.38
2019-01-23T06:55:14.527Z,35.30
2019-01-23T06:57:43.374Z,35.58
2019-01-23T07:00:17.717Z,35.70
2019-01-23T07:02:46.637Z,35.33
2019-01-23T07:05:16.744Z,37.15
2019-01-23T07:07:45.680Z,35.80
2019-01-23T07:10:17.534Z,37.33
2019-01-23T07:12:47.038Z,36.33
2019-01-23T07:15:15.754Z,35.47
2019-01-23T07:17:44.315Z,36.83
2019-01-23T07:20:16.133Z,35.40
2019-01-23T07:22:44.746Z,33.67
2019-01-23T07:25:13.461Z,37.50
2019-01-23T07:27:41.939Z,37.87
2019-01-23T07:30:16.265Z,37.23
2019-01-23T07:32:44.745Z,38.25
2019-01-23T07:35:13.389Z,35.15
2019-01-23T07:37:42.014Z,38.33
2019-01-23T07:40:11.005Z,41.00
2019-01-23T07:42:39.519Z,36.53
2019-01-23T07:45:11.153Z,36.90
2019-01-23T07:47:39.735Z,36.17
2019-01-23T07:50:10.842Z,34.78
2019-01-23T07:52:39.489Z,33.83
2019-01-23T07:55:13.437Z,36.90
2019-01-23T07:57:42.015Z,36.60
2019-01-23T08:00:13.723Z,34.45
2019-01-23T08:02:42.362Z,36.28
2019-01-23T08:05:19.417Z,36.40
2019-01-23T08:07:43.976Z,35.85
2019-01-23T08:10:15.461Z,38.80
2019-01-23T08:12:43.963Z,36.77
2019-01-23T08:15:15.727Z,35.87
2019-01-23T08:17:44.314Z,34.23
2019-01-23T08:20:15.698Z,33.73
2019-01-23T08:22:44.247Z,33.58
2019-01-23T08:25:13.185Z,35.33
2019-01-23T08:27:41.771Z,31.30
2019-01-23T08:30:13.567Z,32.70
2019-01-23T08:32:42.291Z,32.08
2019-01-23T08:35:11.282Z,33.90
2019-01-23T08:37:39.880Z,33.40
2019-01-23T08:40:14.178Z,33.20
2019-01-23T08:42:42.821Z,33.55
2019-01-23T08:45:13.275Z,32.77
2019-01-23T08:47:41.990Z,34.27
2019-01-23T08:50:16.298Z,32.87
2019-01-23T08:52:44.876Z,32.78
2019-01-23T08:55:13.562Z,31.90
2019-01-23T08:57:42.148Z,33.05
2019-01-23T09:00:13.979Z,32.15
2019-01-23T09:02:42.913Z,31.83
2019-01-23T09:05:11.556Z,30.37
2019-01-23T09:07:40.194Z,31.45
2019-01-23T09:10:29.401Z,31.30
2019-01-23T09:12:57.958Z,32.00
2019-01-23T09:15:26.643Z,30.87
2019-01-23T09:17:55.214Z,30.65
2019-01-23T09:20:43.042Z,31.30
2019-01-23T09:23:11.626Z,31.53
2019-01-23T09:25:40.160Z,32.03
2019-01-23T09:28:08.660Z,31.47
2019-01-23T09:30:40.147Z,30.27
2019-01-23T09:33:29.556Z,29.47
2019-01-23T09:36:18.334Z,31.17
2019-01-23T09:39:06.605Z,31.70
2019-01-23T09:41:59.640Z,30.32
2019-01-23T09:44:51.155Z,28.95
2019-01-23T09:47:25.271Z,30.08
2019-01-23T09:50:03.174Z,29.83
2019-01-23T09:52:52.619Z,30.25
2019-01-23T09:55:21.160Z,29.63
2019-01-23T09:57:50.499Z,31.57
2019-01-23T10:00:22.297Z,30.15
2019-01-23T10:02:50.941Z,30.37
2019-01-23T10:05:19.568Z,29.90
2019-01-23T10:07:48.119Z,30.60
2019-01-23T10:10:18.835Z,30.17
2019-01-23T10:12:47.384Z,30.10
2019-01-23T10:15:19.353Z,31.00
2019-01-23T10:17:47.816Z,28.43
2019-01-23T10:20:16.376Z,30.48
2019-01-23T10:22:44.921Z,29.80
2019-01-23T10:25:13.562Z,29.50
2019-01-23T10:27:42.121Z,29.37
2019-01-23T10:30:13.864Z,29.87
2019-01-23T10:32:42.403Z,28.50
2019-01-23T10:35:14.123Z,27.35
2019-01-23T10:37:42.666Z,29.67
2019-01-23T10:40:14.784Z,29.12
2019-01-23T10:42:43.514Z,31.07
2019-01-23T10:45:14.313Z,29.75
2019-01-23T10:47:43.776Z,29.25
2019-01-23T10:50:14.940Z,28.67
2019-01-23T10:52:43.625Z,28.10
2019-01-23T10:55:12.568Z,28.20
2019-01-23T10:57:41.520Z,28.92
2019-01-23T11:00:21.496Z,28.92
2019-01-23T11:02:50.172Z,28.60
2019-01-23T11:05:21.319Z,28.23
2019-01-23T11:07:49.930Z,27.80
2019-01-23T11:10:21.334Z,28.77
2019-01-23T11:12:49.970Z,28.90
2019-01-23T11:15:18.629Z,29.57
2019-01-23T11:17:47.460Z,30.25
2019-01-23T11:20:18.364Z,29.63
2019-01-23T11:22:46.901Z,29.67
2019-01-23T11:25:16.241Z,29.65
2019-01-23T11:27:45.729Z,29.98
2019-01-23T11:30:17.202Z,28.47
2019-01-23T11:32:46.004Z,28.53
2019-01-23T11:35:14.943Z,29.60
2019-01-23T11:37:43.500Z,30.47
2019-01-23T11:40:15.306Z,29.30
2019-01-23T11:42:43.924Z,28.87
2019-01-23T11:45:13.360Z,28.57
2019-01-23T11:47:41.968Z,29.52
2019-01-23T11:50:13.379Z,29.87
2019-01-23T11:52:42.728Z,30.32
2019-01-23T11:55:11.577Z,28.97
2019-01-23T11:57:40.185Z,28.42
2019-01-23T12:00:23.328Z,30.23
2019-01-23T12:02:51.869Z,29.13
2019-01-23T12:05:22.302Z,29.13
2019-01-23T12:07:51.029Z,28.50
2019-01-23T12:10:25.775Z,28.75
2019-01-23T12:12:54.321Z,28.40
2019-01-23T12:15:24.535Z,27.93
2019-01-23T12:17:53.087Z,29.18
2019-01-23T12:20:21.947Z,30.55
2019-01-23T12:22:50.565Z,29.00
2019-01-23T12:25:19.133Z,30.23
2019-01-23T12:27:48.084Z,30.10
2019-01-23T12:30:19.929Z,30.10
2019-01-23T12:32:48.416Z,30.08
2019-01-23T12:35:17.429Z,31.17
2019-01-23T12:37:45.976Z,30.12
2019-01-23T12:40:16.193Z,30.83
2019-01-23T12:42:44.813Z,30.00
2019-01-23T12:45:22.470Z,30.80
2019-01-23T12:47:51.039Z,31.02
2019-01-23T12:50:25.304Z,30.77
2019-01-23T12:52:53.922Z,30.77
2019-01-23T12:55:22.479Z,30.03
2019-01-23T12:57:51.000Z,29.98
2019-01-23T13:00:24.741Z,30.57
2019-01-23T13:02:53.451Z,30.57
2019-01-23T13:05:22.660Z,31.70
2019-01-23T13:07:51.961Z,30.10
2019-01-23T13:10:22.644Z,32.80
2019-01-23T13:12:51.787Z,31.85
2019-01-23T13:15:25.269Z,32.10
2019-01-23T13:17:54.468Z,33.70
2019-01-23T13:20:24.789Z,31.52
2019-01-23T13:22:53.992Z,32.43
2019-01-23T13:25:24.687Z,31.23
2019-01-23T13:27:53.411Z,32.73
2019-01-23T13:30:24.240Z,32.35
2019-01-23T13:32:53.080Z,32.75
2019-01-23T13:35:24.193Z,32.38
2019-01-23T13:37:52.765Z,33.37
2019-01-23T13:40:24.161Z,33.40
2019-01-23T13:42:52.786Z,31.40
2019-01-23T13:45:22.329Z,32.38
2019-01-23T13:47:50.945Z,33.60
2019-01-23T13:50:19.526Z,33.40
2019-01-23T13:52:48.414Z,33.20
2019-01-23T13:55:22.265Z,32.17
2019-01-23T13:57:50.934Z,31.90
2019-01-23T14:00:22.393Z,32.57
2019-01-23T14:02:50.992Z,33.23
2019-01-23T14:05:19.740Z,33.03
2019-01-23T14:07:48.376Z,31.30
2019-01-23T14:10:17.957Z,33.23
2019-01-23T14:12:46.536Z,33.00
2019-01-23T14:15:24.216Z,32.73
2019-01-23T14:17:52.861Z,32.53
2019-01-23T14:20:21.573Z,33.13
2019-01-23T14:22:50.147Z,32.38
2019-01-23T14:25:18.689Z,31.37
2019-01-23T14:27:47.361Z,32.13
2019-01-23T14:30:18.970Z,31.13
2019-01-23T14:32:47.469Z,32.37
2019-01-23T14:35:16.304Z,31.73
2019-01-23T14:37:44.998Z,32.10
2019-01-23T14:40:13.609Z,30.83
2019-01-23T14:42:42.338Z,32.05
2019-01-23T14:45:19.001Z,31.20
2019-01-23T14:47:48.081Z,30.48
2019-01-23T14:50:18.761Z,31.33
2019-01-23T14:52:48.568Z,31.73
2019-01-23T14:55:17.585Z,29.92
2019-01-23T14:57:46.235Z,30.50
2019-01-23T15:00:20.810Z,29.30
2019-01-23T15:02:49.454Z,28.92
2019-01-23T15:05:18.165Z,29.30
2019-01-23T15:07:46.729Z,28.67
2019-01-23T15:10:17.949Z,29.87
2019-01-23T15:12:46.665Z,30.60
2019-01-23T15:15:16.046Z,29.85
2019-01-23T15:17:44.661Z,29.30
2019-01-23T15:20:25.049Z,29.30
2019-01-23T15:22:53.863Z,30.53
2019-01-23T15:25:22.707Z,31.30
2019-01-23T15:27:51.319Z,31.27
2019-01-23T15:30:22.196Z,29.23
2019-01-23T15:32:52.317Z,30.00
2019-01-23T15:35:21.660Z,30.12
2019-01-23T15:37:50.277Z,29.87
2019-01-23T15:40:21.438Z,31.10
2019-01-23T15:42:50.166Z,30.97
2019-01-23T15:45:19.003Z,29.85
2019-01-23T15:47:47.813Z,29.60
2019-01-23T15:50:25.388Z,29.95
2019-01-23T15:52:54.255Z,28.62
2019-01-23T15:55:24.907Z,29.75
2019-01-23T15:57:53.869Z,29.48
2019-01-23T16:00:27.783Z,30.03
2019-01-23T16:02:57.042Z,29.47
2019-01-23T16:05:25.703Z,30.40
2019-01-23T16:07:54.735Z,28.87
2019-01-23T16:10:28.854Z,28.67
2019-01-23T16:12:57.834Z,29.20
2019-01-23T16:15:30.259Z,29.67
2019-01-23T16:17:59.116Z,29.17
2019-01-23T16:20:27.924Z,29.20
2019-01-23T16:22:57.081Z,28.13
2019-01-23T16:25:26.298Z,28.07
2019-01-23T16:27:55.461Z,24.15
2019-01-23T16:30:30.430Z,22.77
2019-01-23T16:32:59.202Z,17.30
2019-01-23T16:35:28.165Z,17.05
2019-01-23T16:37:56.886Z,17.23
2019-01-23T16:40:25.692Z,16.30
2019-01-23T16:42:54.563Z,15.95
2019-01-23T16:45:24.272Z,15.90
2019-01-23T16:47:53.121Z,17.27
2019-01-23T16:50:25.173Z,17.80
2019-01-23T16:52:54.225Z,17.52
2019-01-23T16:55:23.284Z,19.50
2019-01-23T16:57:52.584Z,20.73
2019-01-23T17:00:23.549Z,20.70
2019-01-23T17:02:53.325Z,20.52
2019-01-23T17:05:25.131Z,22.00
2019-01-23T17:07:54.568Z,21.60
2019-01-23T17:10:25.530Z,26.07
2019-01-23T17:12:54.546Z,23.12
2019-01-23T17:15:23.569Z,24.52
2019-01-23T17:17:52.759Z,25.20
2019-01-23T17:20:30.817Z,26.45
2019-01-23T17:22:59.738Z,25.50
2019-01-23T17:25:28.932Z,25.80
2019-01-23T17:27:57.958Z,27.07
2019-01-23T17:30:27.230Z,28.57
2019-01-23T17:32:56.520Z,27.10
2019-01-23T17:35:25.449Z,28.13
2019-01-23T17:37:54.824Z,28.50
2019-01-23T17:40:26.507Z,28.80
2019-01-23T17:42:55.708Z,31.30
2019-01-23T17:45:30.537Z,32.95
2019-01-23T17:48:00.515Z,32.38
2019-01-23T17:50:29.555Z,34.55
2019-01-23T17:52:58.824Z,34.10
2019-01-23T17:55:33.359Z,33.57
2019-01-23T17:58:02.833Z,35.00
2019-01-23T18:00:33.644Z,35.17
2019-01-23T18:03:02.791Z,34.80
2019-01-23T18:05:31.867Z,34.43
2019-01-23T18:08:00.858Z,34.93
2019-01-23T18:10:30.158Z,33.40
2019-01-23T18:12:59.319Z,35.68
2019-01-23T18:15:34.304Z,33.63
2019-01-23T18:18:03.785Z,33.65
2019-01-23T18:20:32.929Z,34.60
2019-01-23T18:23:02.409Z,35.68
2019-01-23T18:25:31.802Z,34.87
2019-01-23T18:28:01.133Z,36.87
2019-01-23T18:30:39.425Z,36.30
2019-01-23T18:33:11.733Z,36.48
2019-01-23T18:36:00.460Z,37.65
2019-01-23T18:38:58.944Z,39.23
2019-01-23T18:41:33.982Z,39.03
2019-01-23T18:44:22.940Z,39.50
2019-01-23T18:47:07.604Z,39.00
2019-01-23T18:49:45.801Z,40.28
2019-01-23T18:52:16.237Z,40.47
2019-01-23T18:54:46.085Z,41.20
2019-01-23T18:57:29.629Z,39.87
2019-01-23T18:59:59.601Z,41.33
2019-01-23T19:02:29.005Z,40.43
2019-01-23T19:04:58.299Z,39.53
2019-01-23T19:07:28.026Z,41.05
2019-01-23T19:09:58.113Z,40.40
2019-01-23T19:12:27.587Z,40.30
2019-01-23T19:14:57.121Z,39.55
2019-01-23T19:17:26.557Z,42.00
2019-01-23T19:19:56.050Z,43.15
2019-01-23T19:22:25.364Z,38.60
2019-01-23T19:24:54.936Z,38.45
2019-01-23T19:27:24.065Z,38.17
2019-01-23T19:29:53.258Z,39.95
2019-01-23T19:32:22.661Z,41.13
2019-01-23T19:34:52.084Z,39.95
2019-01-23T19:37:21.805Z,38.95
2019-01-23T19:39:50.952Z,42.10
2019-01-23T19:42:20.295Z,39.63
2019-01-23T19:44:49.656Z,38.65
2019-01-23T19:47:19.421Z,38.80
2019-01-23T19:49:49.464Z,38.40
2019-01-23T19:52:19.328Z,35.95
2019-01-23T19:54:48.745Z,36.50
2019-01-23T19:57:18.155Z,36.73
2019-01-23T19:59:48.700Z,36.37
2019-01-23T20:02:18.144Z,36.80
2019-01-23T20:04:47.564Z,35.67
2019-01-23T20:07:16.946Z,36.48
2019-01-23T20:09:46.441Z,35.93
2019-01-23T20:12:17.506Z,36.58
2019-01-23T20:14:47.211Z,35.98
2019-01-23T20:17:16.778Z,35.98
2019-01-23T20:19:46.230Z,36.35
2019-01-23T20:22:15.766Z,35.60
2019-01-23T20:24:45.257Z,35.47
2019-01-23T20:27:14.631Z,35.58
2019-01-23T20:29:43.978Z,35.80
2019-01-23T20:32:13.410Z,36.10
2019-01-23T20:34:42.950Z,35.25
2019-01-23T20:37:13.173Z,36.20
2019-01-23T20:39:42.483Z,34.90
2019-01-23T20:42:11.855Z,36.20
2019-01-23T20:44:41.359Z,37.23
2019-01-23T20:47:10.671Z,35.60
2019-01-23T20:49:39.810Z,36.03
2019-01-23T20:52:09.133Z,35.47
2019-01-23T20:54:38.593Z,36.08
2019-01-23T20:57:07.755Z,36.28
2019-01-23T20:59:36.965Z,36.67
2019-01-23T21:02:06.204Z,36.83
2019-01-23T21:04:36.301Z,37.63
2019-01-23T21:07:05.405Z,38.60
2019-01-23T21:09:34.508Z,38.78
2019-01-23T21:12:03.634Z,37.33
2019-01-23T21:14:32.984Z,37.13
2019-01-23T21:17:02.241Z,38.97
2019-01-23T21:19:32.453Z,37.95
2019-01-23T21:22:01.582Z,36.93
2019-01-23T21:24:31.954Z,37.67
2019-01-23T21:27:00.861Z,36.50
2019-01-23T21:29:29.769Z,36.80
2019-01-23T21:31:59.628Z,37.63
2019-01-23T21:34:28.645Z,38.13
2019-01-23T21:36:57.768Z,39.03
2019-01-23T21:39:26.650Z,41.37
2019-01-23T21:41:55.501Z,38.50
2019-01-23T21:44:24.204Z,39.63
2019-01-23T21:46:53.295Z,41.63
2019-01-23T21:49:22.181Z,41.30
2019-01-23T21:51:50.970Z,41.18
2019-01-23T21:54:19.661Z,44.50
2019-01-23T21:56:48.423Z,41.80
2019-01-23T21:59:17.153Z,43.78
2019-01-23T22:01:45.785Z,40.87
2019-01-23T22:04:14.351Z,42.70
2019-01-23T22:06:42.980Z,42.17
2019-01-23T22:09:11.530Z,42.50
2019-01-23T22:11:43.692Z,42.30
2019-01-23T22:14:10.454Z,42.77
2019-01-23T22:16:39.189Z,42.55
2019-01-23T22:19:07.837Z,43.83
2019-01-23T22:21:36.593Z,42.67
2019-01-23T22:24:05.229Z,43.73
2019-01-23T22:26:33.818Z,42.30
2019-01-23T22:29:02.360Z,42.80
2019-01-23T22:31:31.003Z,45.03
2019-01-23T22:33:59.607Z,45.17
2019-01-23T22:36:28.109Z,45.23
2019-01-23T22:38:56.590Z,43.17
2019-01-23T22:41:25.092Z,43.52
2019-01-23T22:43:53.629Z,42.30
2019-01-23T22:46:22.128Z,42.30
2019-01-23T22:48:50.744Z,44.37
2019-01-23T22:51:19.340Z,43.20
2019-01-23T22:53:47.877Z,43.00
2019-01-23T22:56:16.372Z,42.05
2019-01-23T22:58:44.852Z,45.07
2019-01-23T23:01:16.501Z,43.50
2019-01-23T23:03:45.314Z,41.85
2019-01-23T23:06:14.258Z,42.75
2019-01-23T23:08:42.807Z,43.10
2019-01-23T23:11:11.390Z,42.50
2019-01-23T23:13:39.932Z,42.95
2019-01-23T23:16:08.428Z,43.20
2019-01-23T23:18:36.902Z,41.40
2019-01-23T23:21:05.399Z,42.10
2019-01-23T23:23:33.880Z,42.70
2019-01-23T23:26:02.378Z,42.27
2019-01-23T23:28:30.924Z,40.60
2019-01-23T23:30:59.482Z,41.30
2019-01-23T23:33:27.978Z,42.03
2019-01-23T23:35:56.508Z,44.77
2019-01-23T23:38:25.067Z,42.45
2019-01-23T23:40:53.629Z,43.90
2019-01-23T23:43:22.549Z,43.95
2019-01-23T23:45:51.124Z,43.17
2019-01-23T23:48:19.693Z,43.78
2019-01-23T23:50:49.169Z,41.67
2019-01-23T23:53:17.732Z,43.23
2019-01-23T23:55:46.300Z,43.08
2019-01-23T23:58:14.856Z,42.70
